createdAt,value
2022-12-28T00:00:02.003Z,2.72
2022-12-28T00:01:01.886Z,2.75
2022-12-28T00:02:02.883Z,2.81
2022-12-28T00:03:02.688Z,2.87
2022-12-28T00:04:02.604Z,2.89
2022-12-28T00:05:03.062Z,2.94
2022-12-28T00:06:02.799Z,2.97
2022-12-28T00:07:02.094Z,3.00
2022-12-28T00:08:02.254Z,3.01
2022-12-28T00:09:01.969Z,3.06
2022-12-28T00:10:02.399Z,3.09
2022-12-28T00:11:07.936Z,3.17
2022-12-28T00:12:02.201Z,3.20
2022-12-28T00:13:01.935Z,3.20
2022-12-28T00:14:02.406Z,3.21
2022-12-28T00:15:02.172Z,3.21
2022-12-28T00:16:01.853Z,3.23
2022-12-28T00:17:02.347Z,3.23
2022-12-28T00:18:02.610Z,3.27
2022-12-28T00:19:02.922Z,3.29
2022-12-28T00:20:02.340Z,3.35
2022-12-28T00:21:02.734Z,3.38
2022-12-28T00:22:01.907Z,3.40
2022-12-28T00:23:02.119Z,3.42
2022-12-28T00:24:01.826Z,3.47
2022-12-28T00:25:02.332Z,3.51
2022-12-28T00:26:02.101Z,3.54
2022-12-28T00:27:01.989Z,3.61
2022-12-28T00:28:02.379Z,3.66
2022-12-28T00:29:05.105Z,3.70
2022-12-28T00:30:02.155Z,3.73
2022-12-28T00:31:01.864Z,3.69
2022-12-28T00:32:02.484Z,3.72
2022-12-28T00:33:02.909Z,3.75
2022-12-28T00:34:02.542Z,3.78
2022-12-28T00:35:02.417Z,3.81
2022-12-28T00:36:02.835Z,3.83
2022-12-28T00:37:11.421Z,3.86
2022-12-28T00:38:02.093Z,3.88
2022-12-28T00:39:01.812Z,3.91
2022-12-28T00:40:01.708Z,3.94
2022-12-28T00:41:02.115Z,3.97
2022-12-28T00:42:02.471Z,4.03
2022-12-28T00:43:02.219Z,4.06
2022-12-28T00:44:02.216Z,4.09
2022-12-28T00:45:01.986Z,4.12
2022-12-28T00:46:02.482Z,4.15
2022-12-28T00:47:02.734Z,4.20
2022-12-28T00:48:02.753Z,4.24
2022-12-28T00:49:02.842Z,4.26
2022-12-28T00:50:02.523Z,4.29
2022-12-28T00:51:02.987Z,4.29
2022-12-28T00:52:02.297Z,4.34
2022-12-28T00:53:01.674Z,4.39
2022-12-28T00:54:02.025Z,4.43
2022-12-28T00:55:01.724Z,4.47
2022-12-28T00:56:02.044Z,4.49
2022-12-28T00:57:02.079Z,4.53
2022-12-28T00:58:01.853Z,4.56
2022-12-28T00:59:02.117Z,4.59
2022-12-28T01:00:02.157Z,4.61
2022-12-28T01:01:02.269Z,4.64
2022-12-28T01:02:03.152Z,4.66
2022-12-28T01:03:03.296Z,4.71
2022-12-28T01:04:02.814Z,4.76
2022-12-28T01:05:03.093Z,4.81
2022-12-28T01:06:03.033Z,4.87
2022-12-28T01:07:02.542Z,4.91
2022-12-28T01:08:02.287Z,4.95
2022-12-28T01:09:02.035Z,5.01
2022-12-28T01:10:02.323Z,5.04
2022-12-28T01:11:02.113Z,5.08
2022-12-28T01:12:02.480Z,5.12
2022-12-28T01:13:02.884Z,5.17
2022-12-28T01:14:02.662Z,5.20
2022-12-28T01:15:03.011Z,5.24
2022-12-28T01:16:02.456Z,5.27
2022-12-28T01:17:01.874Z,5.30
2022-12-28T01:18:02.292Z,5.31
2022-12-28T01:19:01.949Z,5.31
2022-12-28T01:20:02.191Z,5.29
2022-12-28T01:21:02.533Z,5.27
2022-12-28T01:22:02.545Z,5.28
2022-12-28T01:23:02.951Z,5.29
2022-12-28T01:24:02.863Z,5.29
2022-12-28T01:25:02.683Z,5.28
2022-12-28T01:26:03.069Z,5.29
2022-12-28T01:27:02.860Z,5.28
2022-12-28T01:28:03.053Z,5.28
2022-12-28T01:29:02.904Z,5.29
2022-12-28T01:30:03.478Z,5.30
2022-12-28T01:31:02.994Z,5.32
2022-12-28T01:32:02.513Z,5.31
2022-12-28T01:33:02.629Z,5.31
2022-12-28T01:34:02.931Z,5.32
2022-12-28T01:35:02.850Z,5.33
2022-12-28T01:36:02.395Z,5.34
2022-12-28T01:37:03.205Z,5.35
2022-12-28T01:38:02.799Z,5.37
2022-12-28T01:39:03.232Z,5.38
2022-12-28T01:40:02.740Z,5.41
2022-12-28T01:41:02.787Z,5.43
2022-12-28T01:42:02.732Z,5.46
2022-12-28T01:43:02.190Z,5.49
2022-12-28T01:44:02.571Z,5.52
2022-12-28T01:45:02.277Z,5.55
2022-12-28T01:46:02.604Z,5.58
2022-12-28T01:47:02.717Z,5.61
2022-12-28T01:48:02.592Z,5.64
2022-12-28T01:49:02.999Z,5.66
2022-12-28T01:50:02.554Z,5.66
2022-12-28T01:51:02.807Z,5.67
2022-12-28T01:52:02.773Z,5.69
2022-12-28T01:53:02.744Z,5.70
2022-12-28T01:54:03.137Z,5.72
2022-12-28T01:55:03.329Z,5.75
2022-12-28T01:56:02.861Z,5.77
2022-12-28T01:57:02.352Z,5.79
2022-12-28T01:58:02.084Z,5.81
2022-12-28T01:59:02.602Z,5.81
2022-12-28T02:00:02.358Z,5.82
2022-12-28T02:01:02.265Z,5.82
2022-12-28T02:02:03.435Z,5.84
2022-12-28T02:03:03.258Z,5.85
2022-12-28T02:04:02.776Z,5.86
2022-12-28T02:05:02.521Z,5.86
2022-12-28T02:06:03.107Z,5.86
2022-12-28T02:07:03.230Z,5.85
2022-12-28T02:08:03.454Z,5.85
2022-12-28T02:09:03.092Z,5.87
2022-12-28T02:10:42.240Z,5.88
2022-12-28T02:11:03.379Z,5.87
2022-12-28T02:12:03.014Z,5.85
2022-12-28T02:13:02.783Z,5.88
2022-12-28T02:14:03.167Z,5.90
2022-12-28T02:15:02.948Z,5.92
2022-12-28T02:16:03.132Z,5.93
2022-12-28T02:17:03.728Z,5.97
2022-12-28T02:18:03.631Z,6.02
2022-12-28T02:19:03.235Z,6.04
2022-12-28T02:20:03.035Z,6.06
2022-12-28T02:21:03.359Z,6.08
2022-12-28T02:22:02.496Z,6.12
2022-12-28T02:23:02.996Z,6.15
2022-12-28T02:24:02.773Z,6.11
2022-12-28T02:25:12.646Z,6.16
2022-12-28T02:26:02.628Z,6.19
2022-12-28T02:27:03.085Z,6.19
2022-12-28T02:28:02.952Z,6.18
2022-12-28T02:29:02.669Z,6.20
2022-12-28T02:30:02.710Z,6.23
2022-12-28T02:31:03.427Z,6.25
2022-12-28T02:32:02.285Z,6.31
2022-12-28T02:33:02.720Z,6.36
2022-12-28T02:34:02.507Z,6.40
2022-12-28T02:35:02.904Z,6.46
2022-12-28T02:36:02.428Z,6.47
2022-12-28T02:37:02.756Z,6.48
2022-12-28T02:38:02.917Z,6.52
2022-12-28T02:39:02.630Z,6.53
2022-12-28T02:40:02.778Z,6.53
2022-12-28T02:41:02.830Z,6.56
2022-12-28T02:42:03.224Z,6.58
2022-12-28T02:43:02.811Z,6.58
2022-12-28T02:44:03.072Z,6.58
2022-12-28T02:45:03.225Z,6.55
2022-12-28T02:46:02.946Z,6.58
2022-12-28T02:47:02.260Z,6.61
2022-12-28T02:48:02.016Z,6.62
2022-12-28T02:49:02.247Z,6.62
2022-12-28T02:50:02.453Z,6.61
2022-12-28T02:51:02.296Z,6.61
2022-12-28T02:52:02.991Z,6.62
2022-12-28T02:53:02.706Z,6.65
2022-12-28T02:54:03.192Z,6.66
2022-12-28T02:55:02.695Z,6.60
2022-12-28T02:56:02.634Z,6.63
2022-12-28T02:57:02.792Z,6.63
2022-12-28T02:58:02.333Z,6.64
2022-12-28T02:59:02.690Z,6.65
2022-12-28T03:00:02.483Z,6.69
2022-12-28T03:01:02.897Z,6.73
2022-12-28T03:02:03.286Z,6.75
2022-12-28T03:03:02.757Z,6.75
2022-12-28T03:04:02.985Z,6.74
2022-12-28T03:05:02.803Z,6.72
2022-12-28T03:06:02.688Z,6.70
2022-12-28T03:07:02.884Z,6.71
2022-12-28T03:08:02.693Z,6.72
2022-12-28T03:09:02.640Z,6.72
2022-12-28T03:10:03.026Z,6.74
2022-12-28T03:11:03.207Z,6.71
2022-12-28T03:12:03.361Z,6.71
2022-12-28T03:13:03.328Z,6.72
2022-12-28T03:14:03.157Z,6.74
2022-12-28T03:15:03.353Z,6.73
2022-12-28T03:16:02.800Z,6.72
2022-12-28T03:17:02.742Z,6.68
2022-12-28T03:18:03.071Z,6.69
2022-12-28T03:19:02.394Z,6.74
2022-12-28T03:20:02.959Z,6.68
2022-12-28T03:21:02.401Z,6.61
2022-12-28T03:22:03.161Z,6.65
2022-12-28T03:23:02.838Z,6.65
2022-12-28T03:24:02.640Z,6.66
2022-12-28T03:25:02.729Z,6.66
2022-12-28T03:26:02.862Z,6.67
2022-12-28T03:27:03.199Z,6.67
2022-12-28T03:28:03.107Z,6.69
2022-12-28T03:29:02.784Z,6.69
2022-12-28T03:30:03.235Z,6.69
2022-12-28T03:31:03.075Z,6.68
2022-12-28T03:32:02.925Z,6.72
2022-12-28T03:33:03.270Z,6.71
2022-12-28T03:34:02.933Z,6.71
2022-12-28T03:35:03.299Z,6.69
2022-12-28T03:36:03.409Z,6.68
2022-12-28T03:37:03.413Z,6.69
2022-12-28T03:38:03.208Z,6.71
2022-12-28T03:39:03.677Z,6.72
2022-12-28T03:40:03.742Z,6.76
2022-12-28T03:41:03.277Z,6.79
2022-12-28T03:42:02.715Z,6.79
2022-12-28T03:43:03.208Z,6.81
2022-12-28T03:44:02.848Z,6.82
2022-12-28T03:45:02.852Z,6.84
2022-12-28T03:46:03.269Z,6.85
2022-12-28T03:47:02.775Z,6.86
2022-12-28T03:48:03.274Z,6.88
2022-12-28T03:49:03.107Z,6.89
2022-12-28T03:50:03.008Z,6.90
2022-12-28T03:51:03.413Z,6.91
2022-12-28T03:52:02.982Z,6.94
2022-12-28T03:53:02.947Z,6.97
2022-12-28T03:54:03.281Z,6.99
2022-12-28T03:55:03.016Z,7.02
2022-12-28T03:56:02.889Z,7.06
2022-12-28T03:57:02.288Z,7.09
2022-12-28T03:58:02.774Z,7.14
2022-12-28T03:59:02.463Z,7.17
2022-12-28T04:00:02.854Z,7.19
2022-12-28T04:01:02.432Z,7.22
2022-12-28T04:02:02.026Z,7.25
2022-12-28T04:03:01.871Z,7.26
2022-12-28T04:04:01.683Z,7.26
2022-12-28T04:05:02.163Z,7.26
2022-12-28T04:06:01.767Z,7.28
2022-12-28T04:07:01.849Z,7.30
2022-12-28T04:08:02.254Z,7.31
2022-12-28T04:09:01.808Z,7.33
2022-12-28T04:10:01.958Z,7.37
2022-12-28T04:11:02.342Z,7.38
2022-12-28T04:12:02.988Z,7.40
2022-12-28T04:13:02.512Z,7.41
2022-12-28T04:14:08.486Z,7.43
2022-12-28T04:15:02.943Z,7.45
2022-12-28T04:16:02.439Z,7.48
2022-12-28T04:17:01.903Z,7.50
2022-12-28T04:18:01.987Z,7.51
2022-12-28T04:19:01.767Z,7.53
2022-12-28T04:20:02.222Z,7.55
2022-12-28T04:21:01.843Z,7.56
2022-12-28T04:22:02.426Z,7.58
2022-12-28T04:23:02.185Z,7.58
2022-12-28T04:24:02.676Z,7.59
2022-12-28T04:25:02.225Z,7.61
2022-12-28T04:26:03.082Z,7.62
2022-12-28T04:27:02.585Z,7.62
2022-12-28T04:28:02.755Z,7.63
2022-12-28T04:29:02.924Z,7.65
2022-12-28T04:30:02.692Z,7.67
2022-12-28T04:31:03.017Z,7.69
2022-12-28T04:32:02.316Z,7.71
2022-12-28T04:33:02.226Z,7.71
2022-12-28T04:34:02.614Z,7.74
2022-12-28T04:35:02.403Z,7.75
2022-12-28T04:36:02.133Z,7.76
2022-12-28T04:37:02.623Z,7.77
2022-12-28T04:38:02.648Z,7.78
2022-12-28T04:39:02.879Z,7.80
2022-12-28T04:40:03.007Z,7.79
2022-12-28T04:41:02.445Z,7.81
2022-12-28T04:42:02.002Z,7.81
2022-12-28T04:43:02.214Z,7.81
2022-12-28T04:44:01.800Z,7.81
2022-12-28T04:45:02.127Z,7.81
2022-12-28T04:46:02.191Z,7.83
2022-12-28T04:47:02.047Z,7.83
2022-12-28T04:48:01.739Z,7.84
2022-12-28T04:49:02.207Z,7.87
2022-12-28T04:50:02.087Z,7.87
2022-12-28T04:51:02.070Z,7.89
2022-12-28T04:52:02.337Z,7.90
2022-12-28T04:53:02.764Z,7.91
2022-12-28T04:54:02.759Z,7.92
2022-12-28T04:55:02.417Z,7.94
2022-12-28T04:56:02.443Z,7.96
2022-12-28T04:57:02.388Z,7.98
2022-12-28T04:58:02.198Z,7.98
2022-12-28T04:59:01.927Z,7.99
2022-12-28T05:00:02.411Z,8.01
2022-12-28T05:01:02.596Z,8.02
2022-12-28T05:02:02.918Z,8.03
2022-12-28T05:03:02.712Z,8.03
2022-12-28T05:04:02.724Z,8.04
2022-12-28T05:05:02.468Z,8.05
2022-12-28T05:06:02.891Z,8.05
2022-12-28T05:07:03.430Z,8.05
2022-12-28T05:08:03.583Z,8.05
2022-12-28T05:09:03.042Z,8.05
2022-12-28T05:10:03.042Z,8.05
2022-12-28T05:11:03.397Z,8.05
2022-12-28T05:12:02.765Z,8.05
2022-12-28T05:13:02.531Z,8.06
2022-12-28T05:14:02.729Z,8.07
2022-12-28T05:15:02.769Z,8.07
2022-12-28T05:16:02.724Z,8.07
2022-12-28T05:17:03.052Z,8.09
2022-12-28T05:18:02.836Z,8.09
2022-12-28T05:19:03.128Z,8.11
2022-12-28T05:20:02.891Z,8.13
2022-12-28T05:21:03.192Z,8.13
2022-12-28T05:22:02.542Z,8.15
2022-12-28T05:23:02.186Z,8.17
2022-12-28T05:24:02.648Z,8.17
2022-12-28T05:25:02.388Z,8.18
2022-12-28T05:26:02.220Z,8.19
2022-12-28T05:27:02.743Z,8.19
2022-12-28T05:28:03.207Z,8.19
2022-12-28T05:29:02.718Z,8.21
2022-12-28T05:30:02.409Z,8.22
2022-12-28T05:31:02.926Z,8.22
2022-12-28T05:32:03.040Z,8.23
2022-12-28T05:33:03.435Z,8.23
2022-12-28T05:34:02.999Z,8.24
2022-12-28T05:35:03.067Z,8.24
2022-12-28T05:36:03.488Z,8.26
2022-12-28T05:37:02.716Z,8.27
2022-12-28T05:38:02.343Z,8.28
2022-12-28T05:39:02.802Z,8.29
2022-12-28T05:40:02.237Z,8.31
2022-12-28T05:41:02.579Z,8.31
2022-12-28T05:42:02.860Z,8.33
2022-12-28T05:43:02.584Z,8.34
2022-12-28T05:44:03.020Z,8.35
2022-12-28T05:45:02.591Z,8.37
2022-12-28T05:46:02.797Z,8.36
2022-12-28T05:47:03.265Z,8.37
2022-12-28T05:48:02.877Z,8.38
2022-12-28T05:49:03.311Z,8.39
2022-12-28T05:50:03.148Z,8.41
2022-12-28T05:51:03.014Z,8.40
2022-12-28T05:52:03.464Z,8.40
2022-12-28T05:53:03.181Z,8.41
2022-12-28T05:54:03.149Z,8.42
2022-12-28T05:55:03.485Z,8.41
2022-12-28T05:56:03.111Z,8.43
2022-12-28T05:57:03.380Z,8.43
2022-12-28T05:58:03.062Z,8.45
2022-12-28T05:59:02.987Z,8.46
2022-12-28T06:00:03.269Z,8.44
2022-12-28T06:01:03.489Z,8.44
2022-12-28T06:02:02.645Z,8.44
2022-12-28T06:03:02.852Z,8.44
2022-12-28T06:04:02.449Z,8.44
2022-12-28T06:05:02.273Z,8.44
2022-12-28T06:06:02.655Z,8.46
2022-12-28T06:07:03.137Z,8.48
2022-12-28T06:08:02.697Z,8.48
2022-12-28T06:09:02.741Z,8.48
2022-12-28T06:10:02.972Z,8.49
2022-12-28T06:11:02.731Z,8.51
2022-12-28T06:12:02.231Z,8.52
2022-12-28T06:13:01.795Z,8.51
2022-12-28T06:14:01.825Z,8.52
2022-12-28T06:15:01.718Z,8.53
2022-12-28T06:16:01.728Z,8.54
2022-12-28T06:17:01.960Z,8.56
2022-12-28T06:18:01.859Z,8.55
2022-12-28T06:19:01.674Z,8.57
2022-12-28T06:20:01.867Z,8.57
2022-12-28T06:21:02.208Z,8.57
2022-12-28T06:22:02.443Z,8.58
2022-12-28T06:23:01.975Z,8.59
2022-12-28T06:24:01.774Z,8.57
2022-12-28T06:25:02.211Z,8.57
2022-12-28T06:26:01.923Z,8.57
2022-12-28T06:27:03.109Z,8.57
2022-12-28T06:28:02.546Z,8.58
2022-12-28T06:29:02.829Z,8.57
2022-12-28T06:30:02.584Z,8.59
2022-12-28T06:31:03.049Z,8.59
2022-12-28T06:32:01.653Z,8.60
2022-12-28T06:33:02.267Z,8.59
2022-12-28T06:34:01.731Z,8.60
2022-12-28T06:36:01.864Z,8.62
2022-12-28T06:37:01.744Z,8.61
2022-12-28T06:38:02.201Z,8.63
2022-12-28T06:39:01.924Z,8.62
2022-12-28T06:40:01.712Z,8.62
2022-12-28T06:41:13.286Z,8.63
2022-12-28T06:42:02.080Z,8.63
2022-12-28T06:43:02.042Z,8.63
2022-12-28T06:44:02.460Z,8.64
2022-12-28T06:45:02.656Z,8.66
2022-12-28T06:46:02.599Z,8.68
2022-12-28T06:47:02.616Z,8.72
2022-12-28T06:48:02.431Z,8.72
2022-12-28T06:49:02.249Z,8.73
2022-12-28T06:50:02.205Z,8.73
2022-12-28T06:51:02.612Z,8.72
2022-12-28T06:52:02.407Z,8.71
2022-12-28T06:53:02.775Z,8.72
2022-12-28T06:54:02.351Z,8.71
2022-12-28T06:55:02.585Z,8.71
2022-12-28T06:56:02.678Z,8.71
2022-12-28T06:57:02.461Z,8.72
2022-12-28T06:58:02.254Z,8.71
2022-12-28T06:59:03.746Z,8.71
2022-12-28T07:00:01.963Z,8.72
2022-12-28T07:01:02.558Z,8.72
2022-12-28T07:02:02.433Z,8.72
2022-12-28T07:03:02.606Z,8.72
2022-12-28T07:04:02.226Z,8.73
2022-12-28T07:05:02.505Z,8.74
2022-12-28T07:06:02.125Z,8.74
2022-12-28T07:07:02.548Z,8.76
2022-12-28T07:08:07.686Z,8.77
2022-12-28T07:09:02.819Z,8.78
2022-12-28T07:10:03.116Z,8.78
2022-12-28T07:11:02.657Z,8.76
2022-12-28T07:12:02.225Z,8.76
2022-12-28T07:13:02.651Z,8.75
2022-12-28T07:14:02.204Z,8.77
2022-12-28T07:15:02.120Z,8.78
2022-12-28T07:16:02.654Z,8.79
2022-12-28T07:17:02.813Z,8.79
2022-12-28T07:18:02.966Z,8.80
2022-12-28T07:19:02.789Z,8.81
2022-12-28T07:20:03.247Z,8.83
2022-12-28T07:21:02.911Z,8.83
2022-12-28T07:22:02.354Z,8.82
2022-12-28T07:23:02.818Z,8.83
2022-12-28T07:24:02.780Z,8.83
2022-12-28T07:25:02.944Z,8.83
2022-12-28T07:26:02.759Z,8.85
2022-12-28T07:27:02.115Z,8.84
2022-12-28T07:28:01.855Z,8.85
2022-12-28T07:29:02.324Z,8.85
2022-12-28T07:30:02.112Z,8.86
2022-12-28T07:31:02.245Z,8.86
2022-12-28T07:32:02.662Z,8.88
2022-12-28T07:33:02.419Z,8.90
2022-12-28T07:34:02.641Z,8.90
2022-12-28T07:35:02.584Z,8.90
2022-12-28T07:36:02.369Z,8.92
2022-12-28T07:37:02.914Z,8.93
2022-12-28T07:38:02.779Z,8.95
2022-12-28T07:39:03.193Z,8.94
2022-12-28T07:40:02.812Z,8.95
2022-12-28T07:41:03.191Z,8.94
2022-12-28T07:42:02.063Z,8.96
2022-12-28T07:43:01.881Z,8.95
2022-12-28T07:44:02.027Z,8.95
2022-12-28T07:45:02.350Z,8.96
2022-12-28T07:46:01.914Z,8.98
2022-12-28T07:47:02.377Z,8.97
2022-12-28T07:48:02.489Z,8.97
2022-12-28T07:49:02.293Z,8.97
2022-12-28T07:50:02.174Z,8.97
2022-12-28T07:51:02.084Z,8.98
2022-12-28T07:52:02.488Z,8.99
2022-12-28T07:53:02.266Z,8.99
2022-12-28T07:54:02.827Z,9.01
2022-12-28T07:55:02.317Z,9.02
2022-12-28T07:56:02.714Z,9.02
2022-12-28T07:57:02.564Z,9.01
2022-12-28T07:58:02.396Z,9.01
2022-12-28T07:59:02.242Z,9.01
2022-12-28T08:00:02.329Z,9.01
2022-12-28T08:01:02.293Z,9.00
2022-12-28T08:02:02.502Z,9.02
2022-12-28T08:03:02.479Z,9.01
2022-12-28T08:04:02.428Z,9.01
2022-12-28T08:05:02.596Z,9.03
2022-12-28T08:06:02.631Z,9.02
2022-12-28T08:07:03.219Z,9.03
2022-12-28T08:08:03.928Z,9.04
2022-12-28T08:09:03.371Z,9.05
2022-12-28T08:10:03.292Z,9.08
2022-12-28T08:11:03.059Z,9.09
2022-12-28T08:12:02.530Z,9.09
2022-12-28T08:13:02.280Z,9.09
2022-12-28T08:14:02.699Z,9.10
2022-12-28T08:15:02.380Z,9.10
2022-12-28T08:16:02.279Z,9.10
2022-12-28T08:17:02.704Z,9.10
2022-12-28T08:18:02.734Z,9.11
2022-12-28T08:19:02.685Z,9.11
2022-12-28T08:20:02.454Z,9.11
2022-12-28T08:21:02.916Z,9.12
2022-12-28T08:22:03.012Z,9.12
2022-12-28T08:23:02.967Z,9.12
2022-12-28T08:24:02.893Z,9.13
2022-12-28T08:25:02.832Z,9.14
2022-12-28T08:26:03.472Z,9.13
2022-12-28T08:27:02.958Z,9.13
2022-12-28T08:28:03.137Z,9.14
2022-12-28T08:29:03.024Z,9.15
2022-12-28T08:30:02.726Z,9.17
2022-12-28T08:31:03.045Z,9.18
2022-12-28T08:32:03.343Z,9.18
2022-12-28T08:33:03.414Z,9.18
2022-12-28T08:34:03.316Z,9.17
2022-12-28T08:35:03.179Z,9.19
2022-12-28T08:36:02.940Z,9.21
2022-12-28T08:37:02.541Z,9.22
2022-12-28T08:38:02.554Z,9.22
2022-12-28T08:39:02.696Z,9.24
2022-12-28T08:40:02.395Z,9.25
2022-12-28T08:41:02.275Z,9.26
2022-12-28T08:42:02.838Z,9.27
2022-12-28T08:43:02.466Z,9.28
2022-12-28T08:44:02.959Z,9.27
2022-12-28T08:45:02.532Z,9.26
2022-12-28T08:46:02.741Z,9.26
2022-12-28T08:47:03.436Z,9.27
2022-12-28T08:48:03.067Z,9.28
2022-12-28T08:49:02.875Z,9.30
2022-12-28T08:50:03.023Z,9.30
2022-12-28T08:51:02.962Z,9.32
2022-12-28T08:52:03.491Z,9.33
2022-12-28T08:53:03.368Z,9.33
2022-12-28T08:54:03.317Z,9.35
2022-12-28T08:55:02.964Z,9.34
2022-12-28T08:56:06.629Z,9.34
2022-12-28T08:57:02.679Z,9.35
2022-12-28T08:58:02.625Z,9.36
2022-12-28T08:59:02.689Z,9.38
2022-12-28T09:00:02.394Z,9.39
2022-12-28T09:01:02.558Z,9.38
2022-12-28T09:02:03.060Z,9.38
2022-12-28T09:03:02.971Z,9.38
2022-12-28T09:04:02.701Z,9.41
2022-12-28T09:05:02.480Z,9.43
2022-12-28T09:06:03.013Z,9.45
2022-12-28T09:07:03.609Z,9.44
2022-12-28T09:08:03.143Z,9.46
2022-12-28T09:09:06.353Z,9.47
2022-12-28T09:10:03.438Z,9.46
2022-12-28T09:11:03.228Z,9.48
2022-12-28T09:12:02.921Z,9.47
2022-12-28T09:13:02.869Z,9.48
2022-12-28T09:14:02.579Z,9.48
2022-12-28T09:15:02.542Z,9.48
2022-12-28T09:16:02.531Z,9.50
2022-12-28T09:17:03.288Z,9.50
2022-12-28T09:18:03.076Z,9.51
2022-12-28T09:19:03.088Z,9.51
2022-12-28T09:20:03.083Z,9.52
2022-12-28T09:21:02.671Z,9.54
2022-12-28T09:22:03.352Z,9.56
2022-12-28T09:23:03.361Z,9.57
2022-12-28T09:24:03.016Z,9.58
2022-12-28T09:25:02.963Z,9.59
2022-12-28T09:26:03.216Z,9.59
2022-12-28T09:27:02.172Z,9.61
2022-12-28T09:28:02.655Z,9.62
2022-12-28T09:29:02.672Z,9.63
2022-12-28T09:30:02.474Z,9.63
2022-12-28T09:31:02.499Z,9.63
2022-12-28T09:32:02.431Z,9.63
2022-12-28T09:33:02.418Z,9.62
2022-12-28T09:34:34.976Z,9.63
2022-12-28T09:35:02.659Z,9.65
2022-12-28T09:36:02.623Z,9.66
2022-12-28T09:37:02.538Z,9.67
2022-12-28T09:38:03.092Z,9.67
2022-12-28T09:39:02.843Z,9.64
2022-12-28T09:40:02.709Z,9.61
2022-12-28T09:41:02.697Z,9.60
2022-12-28T09:42:02.859Z,9.60
2022-12-28T09:43:02.723Z,9.60
2022-12-28T09:44:02.759Z,9.60
2022-12-28T09:45:03.008Z,9.59
2022-12-28T09:46:02.727Z,9.59
2022-12-28T09:47:02.861Z,9.59
2022-12-28T09:48:03.411Z,9.58
2022-12-28T09:49:03.421Z,9.57
2022-12-28T09:50:03.462Z,9.57
2022-12-28T09:51:03.149Z,9.56
2022-12-28T09:52:02.175Z,9.56
2022-12-28T09:53:02.547Z,9.57
2022-12-28T09:54:02.472Z,9.58
2022-12-28T09:55:02.329Z,9.59
2022-12-28T09:56:02.318Z,9.61
2022-12-28T09:57:02.242Z,9.62
2022-12-28T09:58:02.460Z,9.62
2022-12-28T09:59:02.489Z,9.62
2022-12-28T10:00:02.460Z,9.63
2022-12-28T10:01:02.625Z,9.64
2022-12-28T10:02:02.674Z,9.64
2022-12-28T10:03:02.438Z,9.64
2022-12-28T10:04:02.954Z,9.64
2022-12-28T10:05:02.533Z,9.65
2022-12-28T10:06:02.419Z,9.66
2022-12-28T10:07:02.776Z,9.69
2022-12-28T10:08:02.784Z,9.69
2022-12-28T10:09:02.910Z,9.70
2022-12-28T10:10:02.836Z,9.71
2022-12-28T10:11:03.244Z,9.70
2022-12-28T10:12:02.951Z,9.70
2022-12-28T10:13:04.652Z,9.71
2022-12-28T10:14:03.050Z,9.72
2022-12-28T10:15:03.268Z,9.73
2022-12-28T10:16:03.346Z,9.73
2022-12-28T10:17:02.244Z,9.74
2022-12-28T10:18:02.202Z,9.75
2022-12-28T10:19:02.714Z,9.75
2022-12-28T10:20:02.682Z,9.76
2022-12-28T10:21:02.580Z,9.77
2022-12-28T10:22:02.715Z,9.77
2022-12-28T10:23:02.991Z,9.78
2022-12-28T10:25:02.800Z,9.77
2022-12-28T10:26:02.964Z,9.79
2022-12-28T10:27:02.934Z,9.79
2022-12-28T10:28:02.839Z,9.80
2022-12-28T10:29:02.975Z,9.82
2022-12-28T10:30:03.074Z,9.82
2022-12-28T10:31:03.424Z,9.83
2022-12-28T10:32:03.183Z,9.82
2022-12-28T10:33:03.847Z,9.82
2022-12-28T10:34:03.607Z,9.84
2022-12-28T10:35:03.343Z,9.84
2022-12-28T10:36:03.222Z,9.86
2022-12-28T10:37:02.242Z,9.88
2022-12-28T10:38:02.215Z,9.90
2022-12-28T10:39:02.079Z,9.90
2022-12-28T10:40:02.409Z,9.88
2022-12-28T10:41:02.098Z,9.88
2022-12-28T10:42:02.805Z,9.88
2022-12-28T10:43:08.644Z,9.87
2022-12-28T10:44:37.321Z,9.88
2022-12-28T10:45:03.288Z,9.87
2022-12-28T10:46:03.028Z,9.88
2022-12-28T10:47:03.234Z,9.87
2022-12-28T10:48:03.098Z,9.87
2022-12-28T10:49:03.255Z,9.86
2022-12-28T10:50:36.100Z,9.88
2022-12-28T10:51:03.080Z,9.87
2022-12-28T10:52:02.736Z,9.88
2022-12-28T10:53:02.862Z,9.89
2022-12-28T10:54:02.601Z,9.90
2022-12-28T10:55:08.251Z,9.91
2022-12-28T10:56:02.606Z,9.93
2022-12-28T10:57:03.603Z,9.94
2022-12-28T10:58:28.636Z,9.95
2022-12-28T10:59:03.307Z,9.95
2022-12-28T11:00:03.517Z,9.96
2022-12-28T11:01:03.253Z,9.96
2022-12-28T11:02:03.427Z,9.98
2022-12-28T11:03:03.567Z,9.98
2022-12-28T11:04:03.340Z,9.99
2022-12-28T11:05:03.330Z,10.01
2022-12-28T11:06:03.183Z,10.00
2022-12-28T11:07:02.845Z,10.01
2022-12-28T11:08:03.084Z,10.02
2022-12-28T11:09:02.857Z,10.02
2022-12-28T11:10:03.176Z,10.03
2022-12-28T11:11:03.065Z,10.03
2022-12-28T11:12:03.071Z,10.04
2022-12-28T11:13:02.937Z,10.05
2022-12-28T11:14:03.428Z,10.06
2022-12-28T11:15:03.145Z,10.08
2022-12-28T11:16:03.091Z,10.08
2022-12-28T11:17:03.076Z,10.08
2022-12-28T11:18:03.008Z,10.07
2022-12-28T11:19:02.828Z,10.07
2022-12-28T11:20:03.144Z,10.05
2022-12-28T11:21:02.811Z,10.06
2022-12-28T11:22:02.399Z,10.05
2022-12-28T11:23:02.816Z,10.05
2022-12-28T11:24:02.643Z,10.05
2022-12-28T11:25:02.865Z,10.05
2022-12-28T11:26:02.371Z,10.07
2022-12-28T11:27:03.019Z,10.07
2022-12-28T11:28:03.008Z,10.07
2022-12-28T11:29:03.121Z,10.07
2022-12-28T11:30:03.085Z,10.07
2022-12-28T11:31:02.894Z,10.08
2022-12-28T11:32:03.080Z,10.08
2022-12-28T11:33:03.400Z,10.07
2022-12-28T11:34:02.991Z,10.07
2022-12-28T11:35:03.126Z,10.07
2022-12-28T11:36:08.294Z,10.06
2022-12-28T11:37:02.812Z,10.06
2022-12-28T11:38:02.533Z,10.03
2022-12-28T11:40:02.697Z,10.02
2022-12-28T11:41:02.635Z,10.02
2022-12-28T11:43:03.119Z,10.03
2022-12-28T11:44:03.140Z,10.04
2022-12-28T11:45:03.193Z,10.05
2022-12-28T11:46:02.746Z,10.06
2022-12-28T11:47:03.502Z,10.06
2022-12-28T11:48:03.301Z,10.07
2022-12-28T11:49:03.680Z,10.07
2022-12-28T11:50:03.535Z,10.06
2022-12-28T11:51:03.753Z,10.07
2022-12-28T11:52:02.795Z,10.05
2022-12-28T11:53:04.775Z,10.04
2022-12-28T11:54:02.498Z,10.02
2022-12-28T11:55:02.349Z,10.00
2022-12-28T11:56:02.734Z,10.01
2022-12-28T11:57:03.032Z,10.02
2022-12-28T11:58:03.052Z,10.02
2022-12-28T11:59:03.134Z,10.02
2022-12-28T12:00:03.083Z,10.02
2022-12-28T12:01:02.776Z,10.01
2022-12-28T12:02:02.532Z,10.01
2022-12-28T12:03:02.308Z,10.00
2022-12-28T12:04:02.360Z,9.98
2022-12-28T12:05:02.117Z,9.98
2022-12-28T12:06:02.659Z,9.97
2022-12-28T12:07:02.869Z,9.96
2022-12-28T12:08:02.514Z,9.94
2022-12-28T12:09:02.983Z,9.93
2022-12-28T12:10:02.405Z,9.94
2022-12-28T12:11:02.877Z,9.95
2022-12-28T12:12:02.403Z,9.98
2022-12-28T12:13:02.315Z,10.00
2022-12-28T12:14:02.153Z,10.02
2022-12-28T12:15:02.181Z,10.03
2022-12-28T12:16:02.130Z,10.03
2022-12-28T12:17:02.596Z,10.04
2022-12-28T12:18:02.207Z,10.05
2022-12-28T12:19:02.241Z,10.06
2022-12-28T12:20:02.147Z,10.06
2022-12-28T12:21:02.169Z,10.05
2022-12-28T12:22:02.859Z,10.05
2022-12-28T12:23:02.867Z,10.04
2022-12-28T12:24:02.758Z,10.03
2022-12-28T12:25:02.784Z,10.00
2022-12-28T12:26:02.609Z,10.00
2022-12-28T12:28:03.092Z,9.99
2022-12-28T12:29:03.232Z,10.00
2022-12-28T12:30:03.062Z,10.00
2022-12-28T12:31:03.149Z,10.02
2022-12-28T12:32:02.972Z,10.03
2022-12-28T12:33:02.912Z,10.04
2022-12-28T12:34:02.949Z,10.06
2022-12-28T12:35:02.538Z,10.08
2022-12-28T12:36:02.517Z,10.11
2022-12-28T12:37:01.932Z,10.12
2022-12-28T12:38:02.591Z,10.14
2022-12-28T12:39:02.589Z,10.14
2022-12-28T12:40:02.186Z,10.13
2022-12-28T12:41:02.078Z,10.11
2022-12-28T12:42:02.487Z,10.12
2022-12-28T12:43:03.148Z,10.12
2022-12-28T12:44:03.044Z,10.12
2022-12-28T12:45:02.795Z,10.10
2022-12-28T12:46:02.850Z,10.09
2022-12-28T12:47:05.918Z,10.07
2022-12-28T12:48:03.419Z,10.06
2022-12-28T12:49:02.943Z,10.04
2022-12-28T12:50:02.902Z,10.05
2022-12-28T12:51:03.342Z,10.05
2022-12-28T12:52:03.389Z,10.06
2022-12-28T12:53:03.021Z,10.06
2022-12-28T12:54:02.881Z,10.03
2022-12-28T12:55:02.686Z,10.02
2022-12-28T12:56:02.602Z,10.00
2022-12-28T12:57:02.549Z,9.98
2022-12-28T12:58:02.851Z,9.98
2022-12-28T12:59:03.180Z,9.98
2022-12-28T13:00:03.049Z,9.98
2022-12-28T13:01:03.374Z,9.98
2022-12-28T13:02:03.195Z,9.98
2022-12-28T13:03:02.403Z,10.00
2022-12-28T13:04:02.403Z,10.01
2022-12-28T13:05:02.326Z,10.04
2022-12-28T13:06:02.351Z,10.07
2022-12-28T13:07:02.168Z,10.09
2022-12-28T13:08:02.797Z,10.11
2022-12-28T13:09:05.629Z,10.12
2022-12-28T13:10:02.721Z,10.15
2022-12-28T13:11:03.244Z,10.13
2022-12-28T13:12:03.081Z,10.15
2022-12-28T13:13:02.124Z,10.16
2022-12-28T13:14:02.089Z,10.16
2022-12-28T13:15:04.874Z,10.14
2022-12-28T13:16:01.864Z,10.12
2022-12-28T13:17:02.416Z,10.13
2022-12-28T13:18:43.053Z,10.12
2022-12-28T13:19:01.924Z,10.14